Time;durP1;ratioP1;P1;durP2;ratioP2;P2;SDS_P1;SDS_P2;PMS_P1;PMS_P2;Temp;Humidity;BMP_temperature;BMP_pressure;BME280_temperature;BME280_humidity;BME280_pressure;Samples;Min_cycle;Max_cycle;Signal;HPM_P1;HPM_P2
2022/09/09 00:02:19;;;;;;;;;8.00;7.67;;;28.26;101231.42;;;;116997;1193;25484;-58
2022/09/09 00:04:56;;;;;;;;;6.50;6.50;;;28.28;101232.71;;;;117084;1193;25270;-57
2022/09/09 00:07:32;;;;;;;;;7.00;6.50;;;28.26;101233.92;;;;117017;1193;25196;-57
2022/09/09 00:10:21;;;;;;;;;7.00;7.00;;;28.24;101233.48;;;;117059;1193;25384;-59
2022/09/09 00:12:55;;;;;;;;;7.00;7.00;;;28.27;101232.32;;;;117127;1193;25177;-57
2022/09/09 00:16:00;;;;;;;;;8.00;8.00;;;28.30;101234.62;;;;117181;1193;24914;-57
2022/09/09 00:18:33;;;;;;;;;7.67;7.00;;;28.32;101236.49;;;;117076;1193;24956;-57
2022/09/09 00:21:09;;;;;;;;;6.25;6.25;;;28.32;101235.88;;;;117125;1191;24767;-58
2022/09/09 00:23:51;;;;;;;;;8.25;7.75;;;28.30;101236.71;;;;117070;1193;25495;-58
2022/09/09 00:26:23;;;;;;;;;7.25;7.25;;;28.27;101240.02;;;;117109;1193;24912;-57
2022/09/09 00:29:23;;;;;;;;;8.75;6.75;;;28.26;101242.32;;;;117173;1192;25453;-57
2022/09/09 00:31:57;;;;;;;;;7.50;7.50;;;28.25;101243.66;;;;117138;1192;25108;-58
2022/09/09 00:34:27;;;;;;;;;8.00;7.50;;;28.22;101242.11;;;;117058;1193;24903;-57
2022/09/09 00:36:56;;;;;;;;;9.00;9.00;;;28.21;101242.80;;;;117089;1194;25273;-57
2022/09/09 00:39:41;;;;;;;;;8.33;7.00;;;28.18;101239.55;;;;117052;1194;25103;-57
2022/09/09 00:42:15;;;;;;;;;8.25;7.75;;;28.17;101238.58;;;;117149;1191;25116;-58
2022/09/09 00:44:57;;;;;;;;;4.00;4.00;;;28.18;101240.41;;;;117024;1193;24685;-56
2022/09/09 00:47:45;;;;;;;;;7.00;7.00;;;28.19;101239.36;;;;117008;1194;25104;-58
2022/09/09 00:50:32;;;;;;;;;8.33;6.67;;;28.19;101234.11;;;;117023;1194;25515;-57
2022/09/09 00:53:37;;;;;;;;;8.25;7.00;;;28.14;101231.53;;;;117016;1194;24750;-58
2022/09/09 00:56:20;;;;;;;;;9.75;7.50;;;28.18;101229.98;;;;116882;1192;24771;-58
2022/09/09 00:59:23;;;;;;;;;5.00;5.00;;;28.21;101230.33;;;;117028;1193;25236;-58
2022/09/09 01:01:55;;;;;;;;;6.25;5.75;;;28.24;101226.77;;;;116896;1194;25128;-57
2022/09/09 01:04:33;;;;;;;;;5.33;4.33;;;28.24;101224.22;;;;117038;1193;24815;-57
2022/09/09 01:07:17;;;;;;;;;5.00;5.00;;;28.20;101219.44;;;;117019;1192;25638;-60
2022/09/09 01:09:55;;;;;;;;;7.75;6.00;;;28.21;101220.02;;;;117045;1192;25427;-57
2022/09/09 01:12:38;;;;;;;;;8.25;7.00;;;28.19;101222.91;;;;117048;1193;25548;-57
2022/09/09 01:15:19;;;;;;;;;7.67;7.00;;;28.18;101221.90;;;;116999;1193;25508;-57
2022/09/09 01:17:58;;;;;;;;;7.75;6.75;;;28.18;101221.38;;;;117039;1194;24940;-57
2022/09/09 01:20:47;;;;;;;;;4.50;4.50;;;28.16;101218.78;;;;117017;1193;24881;-58
2022/09/09 01:23:46;;;;;;;;;7.00;7.00;;;28.19;101213.42;;;;116895;1193;25594;-57
2022/09/09 01:26:23;;;;;;;;;8.33;7.00;;;28.20;101216.04;;;;117073;1194;24833;-57
2022/09/09 01:28:52;;;;;;;;;9.00;7.00;;;28.17;101216.75;;;;116973;1193;24815;-58
2022/09/09 01:31:30;;;;;;;;;5.00;4.67;;;28.13;101213.67;;;;117044;1193;24744;-58
2022/09/09 01:33:59;;;;;;;;;5.75;5.50;;;28.13;101210.17;;;;117020;1193;25646;-58
2022/09/09 01:36:39;;;;;;;;;6.75;4.50;;;28.12;101209.02;;;;117046;1194;25225;-58
2022/09/09 01:39:07;;;;;;;;;7.33;6.33;;;28.10;101207.19;;;;117007;1194;25505;-58
2022/09/09 01:41:36;;;;;;;;;7.50;7.50;;;28.08;101200.66;;;;116872;1193;25706;-58
2022/09/09 01:44:06;;;;;;;;;8.75;7.50;;;28.07;101196.97;;;;116764;1193;25555;-58
2022/09/09 01:46:35;;;;;;;;;7.75;5.25;;;28.07;101200.75;;;;117030;1192;25451;-59
2022/09/09 01:49:06;;;;;;;;;7.00;6.67;;;28.07;101204.18;;;;117039;1194;25248;-57
2022/09/09 01:51:37;;;;;;;;;8.33;7.00;;;28.05;101205.20;;;;117021;1193;25053;-58
2022/09/09 01:54:06;;;;;;;;;7.00;6.00;;;28.06;101206.27;;;;117001;1193;25668;-58
2022/09/09 01:56:59;;;;;;;;;7.75;7.75;;;28.06;101209.40;;;;117036;1193;24813;-57
2022/09/09 01:59:51;;;;;;;;;9.75;7.00;;;28.07;101209.26;;;;117111;1193;24998;-57
2022/09/09 02:02:59;;;;;;;;;7.75;7.75;;;28.07;101205.61;;;;117143;1192;25800;-58
2022/09/09 02:05:39;;;;;;;;;9.00;5.50;;;28.15;101208.52;;;;117098;1191;25279;-58
2022/09/09 02:08:10;;;;;;;;;8.00;6.33;;;28.13;101209.10;;;;117143;1191;25340;-56
2022/09/09 02:11:00;;;;;;;;;8.50;7.00;;;28.10;101205.70;;;;117142;1193;25237;-57
2022/09/09 02:13:29;;;;;;;;;7.33;5.33;;;28.10;101206.52;;;;117088;1193;25275;-57
2022/09/09 02:16:05;;;;;;;;;6.00;6.00;;;28.06;101203.86;;;;117085;1193;25422;-57
2022/09/09 02:18:39;;;;;;;;;5.67;5.67;;;28.05;101202.70;;;;117118;1192;25189;-55
2022/09/09 02:21:08;;;;;;;;;5.00;5.00;;;28.04;101203.30;;;;117106;1193;25311;-57
2022/09/09 02:23:37;;;;;;;;;8.00;8.00;;;28.04;101202.63;;;;117138;1191;25191;-57
2022/09/09 02:26:07;;;;;;;;;6.00;6.00;;;28.03;101205.17;;;;117162;1193;24842;-56
2022/09/09 02:28:37;;;;;;;;;9.25;6.25;;;28.02;101204.66;;;;117175;1193;25195;-57
2022/09/09 02:31:06;;;;;;;;;5.50;5.50;;;28.01;101202.70;;;;117041;1194;25317;-57
2022/09/09 02:33:40;;;;;;;;;7.50;7.50;;;28.01;101202.14;;;;117067;1193;25365;-57
2022/09/09 02:36:11;;;;;;;;;7.00;5.00;;;28.02;101202.88;;;;117058;1193;25490;-58
2022/09/09 02:38:45;;;;;;;;;6.50;6.25;;;28.01;101200.17;;;;117081;1193;25269;-57
2022/09/09 02:41:13;;;;;;;;;5.25;4.75;;;28.01;101196.98;;;;117108;1191;25445;-58
2022/09/09 02:43:42;;;;;;;;;6.00;5.50;;;28.00;101193.38;;;;117035;1193;25354;-57
2022/09/09 02:46:25;;;;;;;;;6.00;5.50;;;27.98;101191.61;;;;117052;1193;25682;-56
2022/09/09 02:49:01;;;;;;;;;5.25;4.75;;;27.97;101197.13;;;;117114;1191;25159;-58
2022/09/09 02:51:51;;;;;;;;;5.00;5.00;;;27.96;101199.84;;;;117169;1193;25222;-57
2022/09/09 02:54:30;;;;;;;;;7.00;7.00;;;27.98;101193.17;;;;117147;1193;25773;-58
2022/09/09 02:57:22;;;;;;;;;5.00;5.00;;;27.98;101193.98;;;;117119;1191;24914;-57
2022/09/09 02:59:54;;;;;;;;;4.75;4.75;;;28.01;101190.54;;;;117074;1193;25123;-57
2022/09/09 03:02:24;;;;;;;;;4.75;4.75;;;28.02;101191.93;;;;117124;1192;25081;-56
2022/09/09 03:04:52;;;;;;;;;10.75;6.75;;;28.00;101191.00;;;;117012;1193;25098;-57
2022/09/09 03:07:21;;;;;;;;;5.50;5.50;;;27.99;101190.82;;;;117052;1193;25412;-59
2022/09/09 03:09:50;;;;;;;;;6.75;6.75;;;27.98;101191.67;;;;117136;1192;25511;-58
2022/09/09 03:12:18;;;;;;;;;8.25;5.75;;;27.97;101195.64;;;;117040;1193;25571;-57
2022/09/09 03:14:46;;;;;;;;;5.50;5.00;;;27.95;101197.05;;;;116996;1193;24898;-57
2022/09/09 03:17:14;;;;;;;;;4.50;4.50;;;27.95;101196.70;;;;117026;1193;24765;-57
2022/09/09 03:19:43;;;;;;;;;4.67;4.67;;;27.94;101199.05;;;;117034;1192;24974;-57
2022/09/09 03:22:13;;;;;;;;;6.33;6.33;;;27.94;101202.26;;;;117101;1193;25484;-56
2022/09/09 03:24:41;;;;;;;;;4.33;4.00;;;27.94;101204.15;;;;117064;1192;25302;-57
2022/09/09 03:27:09;;;;;;;;;5.50;5.50;;;27.93;101200.94;;;;117069;1192;25373;-56
2022/09/09 03:29:38;;;;;;;;;7.00;5.00;;;27.93;101198.13;;;;117074;1191;24930;-57
2022/09/09 03:32:06;;;;;;;;;7.75;6.25;;;27.93;101201.01;;;;116997;1193;25330;-57
2022/09/09 03:34:35;;;;;;;;;5.00;5.00;;;27.92;101204.71;;;;117035;1193;25600;-59
2022/09/09 03:37:04;;;;;;;;;7.75;7.75;;;27.92;101203.65;;;;117015;1193;25629;-59
2022/09/09 03:39:32;;;;;;;;;9.33;6.33;;;27.90;101205.04;;;;117058;1192;25446;-57
2022/09/09 03:42:03;;;;;;;;;5.00;4.25;;;27.92;101208.52;;;;117074;1193;24875;-58
2022/09/09 03:44:32;;;;;;;;;5.75;5.50;;;27.92;101213.40;;;;117032;1193;24832;-58
2022/09/09 03:47:00;;;;;;;;;5.00;3.50;;;27.91;101211.38;;;;116984;1193;25293;-59
2022/09/09 03:49:28;;;;;;;;;5.00;5.00;;;27.92;101211.45;;;;116999;1193;24967;-61
2022/09/09 03:51:58;;;;;;;;;5.67;4.33;;;27.90;101213.48;;;;117039;1193;26112;-58
2022/09/09 03:54:27;;;;;;;;;5.00;5.00;;;27.91;101214.41;;;;117070;1193;24937;-59
2022/09/09 03:56:56;;;;;;;;;8.25;7.00;;;27.90;101224.34;;;;117097;1192;25499;-57
2022/09/09 03:59:25;;;;;;;;;5.75;5.00;;;27.90;101225.53;;;;117155;1193;25288;-57
2022/09/09 04:01:54;;;;;;;;;5.00;5.00;;;27.90;101226.27;;;;117169;1193;24819;-57
2022/09/09 04:04:23;;;;;;;;;8.33;7.00;;;27.90;101223.62;;;;117163;1193;24890;-57
2022/09/09 04:06:51;;;;;;;;;6.00;4.75;;;27.90;101219.90;;;;117026;1193;25344;-57
2022/09/09 04:09:20;;;;;;;;;6.33;5.67;;;27.90;101216.68;;;;117160;1193;25106;-59
2022/09/09 04:11:49;;;;;;;;;4.50;4.50;;;27.90;101218.62;;;;117035;1193;25625;-57
2022/09/09 04:14:17;;;;;;;;;5.00;4.00;;;27.91;101223.25;;;;117190;1193;24678;-57
2022/09/09 04:16:45;;;;;;;;;8.25;6.50;;;27.90;101226.66;;;;117014;1192;25269;-58
2022/09/09 04:19:14;;;;;;;;;5.00;5.00;;;27.89;101225.15;;;;117063;1193;25281;-58
2022/09/09 04:21:43;;;;;;;;;7.50;7.00;;;27.89;101223.95;;;;117018;1192;24986;-58
2022/09/09 04:24:11;;;;;;;;;4.00;4.00;;;27.89;101224.16;;;;117101;1193;24934;-57
2022/09/09 04:26:40;;;;;;;;;5.00;5.00;;;27.90;101224.82;;;;117029;1193;25643;-58
2022/09/09 04:29:09;;;;;;;;;6.75;5.00;;;27.89;101226.83;;;;117118;1193;24961;-58
2022/09/09 04:31:41;;;;;;;;;5.50;5.50;;;27.88;101230.77;;;;117162;1191;25128;-58
2022/09/09 04:34:10;;;;;;;;;6.67;6.00;;;27.90;101233.54;;;;117189;1192;25293;-58
2022/09/09 04:36:40;;;;;;;;;6.00;5.00;;;27.90;101231.90;;;;117169;1191;24871;-57
2022/09/09 04:39:08;;;;;;;;;6.25;6.25;;;27.90;101228.71;;;;117102;1192;25011;-58
2022/09/09 04:41:37;;;;;;;;;6.25;6.25;;;27.90;101225.61;;;;117141;1191;25537;-58
2022/09/09 04:44:05;;;;;;;;;5.00;5.00;;;27.90;101219.58;;;;117117;1192;25232;-57
2022/09/09 04:46:34;;;;;;;;;5.75;5.25;;;27.88;101216.97;;;;117126;1192;25501;-57
2022/09/09 04:49:02;;;;;;;;;5.50;5.50;;;27.88;101218.77;;;;117157;1192;25029;-57
2022/09/09 04:51:31;;;;;;;;;5.00;5.00;;;27.87;101218.28;;;;117056;1192;24960;-57
2022/09/09 04:53:59;;;;;;;;;6.75;5.00;;;27.87;101215.44;;;;117143;1191;24941;-59
2022/09/09 04:56:28;;;;;;;;;4.33;4.33;;;27.87;101209.58;;;;117077;1192;25305;-59
2022/09/09 04:58:56;;;;;;;;;5.00;4.00;;;27.87;101203.34;;;;117092;1191;25555;-58
2022/09/09 05:01:25;;;;;;;;;6.33;5.33;;;27.87;101197.70;;;;117162;1192;24750;-59
2022/09/09 05:03:54;;;;;;;;;5.67;5.67;;;27.89;101193.21;;;;117067;1190;25624;-59
2022/09/09 05:06:23;;;;;;;;;6.75;5.75;;;27.88;101190.92;;;;116908;1193;24991;-58
2022/09/09 05:08:52;;;;;;;;;7.50;6.25;;;27.90;101193.00;;;;117060;1192;25095;-58
2022/09/09 05:11:25;;;;;;;;;7.25;4.75;;;27.91;101193.86;;;;116967;1193;24848;-59
2022/09/09 05:13:54;;;;;;;;;4.33;4.33;;;27.94;101194.11;;;;117112;1192;25249;-58
2022/09/09 05:16:23;;;;;;;;;3.25;3.25;;;27.94;101198.38;;;;117128;1193;25228;-61
2022/09/09 05:18:52;;;;;;;;;3.75;3.75;;;27.95;101202.13;;;;117018;1193;24938;-59
2022/09/09 05:21:22;;;;;;;;;5.00;5.00;;;27.95;101200.31;;;;117009;1193;24778;-59
2022/09/09 05:23:51;;;;;;;;;5.00;5.00;;;27.95;101197.05;;;;117006;1193;24814;-57
2022/09/09 05:26:21;;;;;;;;;5.00;5.00;;;27.94;101198.15;;;;117034;1193;24881;-58
2022/09/09 05:28:49;;;;;;;;;5.50;4.00;;;27.93;101198.90;;;;116991;1193;25389;-58
2022/09/09 05:31:19;;;;;;;;;6.00;5.00;;;27.93;101207.08;;;;116989;1192;25437;-58
2022/09/09 05:33:49;;;;;;;;;5.00;5.00;;;27.93;101211.84;;;;117084;1191;25225;-60
2022/09/09 05:36:20;;;;;;;;;5.00;5.00;;;27.92;101212.48;;;;117073;1192;24875;-57
2022/09/09 05:38:49;;;;;;;;;7.25;7.00;;;27.93;101212.36;;;;117124;1192;25297;-58
2022/09/09 05:41:18;;;;;;;;;8.00;6.25;;;27.95;101205.61;;;;117108;1193;25496;-59
2022/09/09 05:43:47;;;;;;;;;5.00;5.00;;;27.96;101202.11;;;;116971;1192;25141;-59
2022/09/09 05:46:19;;;;;;;;;6.25;5.25;;;27.93;101198.04;;;;116991;1192;24881;-61
2022/09/09 05:48:53;;;;;;;;;5.00;3.75;;;27.94;101197.26;;;;117032;1192;24742;-58
2022/09/09 05:51:24;;;;;;;;;4.75;4.75;;;27.94;101198.66;;;;116946;1193;25142;-59
2022/09/09 05:53:54;;;;;;;;;4.00;4.00;;;27.96;101203.83;;;;116988;1191;26347;-58
2022/09/09 05:56:25;;;;;;;;;7.50;4.50;;;27.96;101201.76;;;;117021;1193;24955;-57
2022/09/09 05:58:55;;;;;;;;;4.50;3.75;;;27.97;101202.42;;;;117067;1192;25231;-58
2022/09/09 06:01:34;;;;;;;;;4.50;4.50;;;27.95;101199.61;;;;117056;1192;25450;-58
2022/09/09 06:04:03;;;;;;;;;5.50;5.50;;;27.97;101196.43;;;;117063;1191;25571;-60
2022/09/09 06:06:39;;;;;;;;;6.75;6.75;;;27.99;101197.08;;;;116942;1192;24988;-57
2022/09/09 06:09:10;;;;;;;;;4.67;4.67;;;28.05;101193.99;;;;117204;1192;25210;-58
2022/09/09 06:11:39;;;;;;;;;7.33;7.33;;;28.04;101191.46;;;;116966;1193;24808;-55
2022/09/09 06:14:08;;;;;;;;;5.67;5.67;;;28.04;101194.31;;;;116910;1193;24760;-57
2022/09/09 06:16:43;;;;;;;;;8.00;6.33;;;28.05;101191.90;;;;117020;1192;25380;-57
2022/09/09 06:19:12;;;;;;;;;6.75;4.50;;;28.02;101191.48;;;;117054;1193;25145;-62
2022/09/09 06:21:42;;;;;;;;;6.33;5.67;;;27.98;101191.14;;;;117009;1193;25141;-60
2022/09/09 06:24:13;;;;;;;;;7.75;6.00;;;28.02;101197.95;;;;117018;1193;24891;-62
2022/09/09 06:26:41;;;;;;;;;9.00;7.67;;;28.01;101192.95;;;;116985;1191;25249;-60
2022/09/09 06:29:11;;;;;;;;;4.67;4.67;;;28.02;101190.89;;;;116952;1193;25344;-60
2022/09/09 06:31:40;;;;;;;;;9.50;6.75;;;28.12;101192.30;;;;116852;1192;25435;-59
2022/09/09 06:34:09;;;;;;;;;8.25;7.50;;;28.24;101193.88;;;;116990;1193;25553;-56
2022/09/09 06:36:38;;;;;;;;;4.50;4.50;;;28.22;101195.44;;;;117090;1193;24957;-56
2022/09/09 06:39:10;;;;;;;;;6.33;6.33;;;28.22;101194.57;;;;117055;1193;25433;-55
2022/09/09 06:41:42;;;;;;;;;5.75;4.50;;;28.21;101197.93;;;;116968;1193;24928;-58
2022/09/09 06:44:11;;;;;;;;;11.50;7.75;;;28.21;101196.04;;;;117049;1193;25665;-56
2022/09/09 06:46:40;;;;;;;;;7.00;6.00;;;28.22;101205.27;;;;117116;1191;25559;-57
2022/09/09 06:49:09;;;;;;;;;6.75;5.75;;;28.24;101204.01;;;;116975;1191;25325;-56
2022/09/09 06:51:42;;;;;;;;;5.00;5.00;;;28.22;101205.27;;;;117028;1189;26281;-57
2022/09/09 06:54:12;;;;;;;;;10.00;5.33;;;28.22;101208.16;;;;117235;1189;25623;-56
2022/09/09 06:56:42;;;;;;;;;8.67;2.67;;;28.24;101205.11;;;;117069;1192;25299;-56
2022/09/09 06:59:12;;;;;;;;;5.00;5.00;;;28.20;101209.48;;;;117053;1192;25523;-58
2022/09/09 07:01:46;;;;;;;;;4.75;4.75;;;28.20;101213.63;;;;117039;1192;25657;-58
2022/09/09 07:04:20;;;;;;;;;6.00;4.33;;;28.21;101215.30;;;;117329;1190;24998;-56
2022/09/09 07:06:48;;;;;;;;;7.75;5.25;;;28.22;101218.42;;;;116997;1192;25590;-56
2022/09/09 07:09:17;;;;;;;;;4.00;4.00;;;28.24;101220.86;;;;117084;1192;25057;-56
2022/09/09 07:11:48;;;;;;;;;7.00;5.00;;;28.23;101227.66;;;;117099;1191;24782;-55
2022/09/09 07:14:17;;;;;;;;;5.00;4.25;;;28.25;101231.73;;;;117027;1192;24966;-56
2022/09/09 07:16:46;;;;;;;;;4.50;4.25;;;28.27;101232.44;;;;116955;1192;25700;-59
2022/09/09 07:19:15;;;;;;;;;6.50;6.50;;;28.22;101229.85;;;;116897;1193;25418;-56
2022/09/09 07:21:44;;;;;;;;;4.67;4.67;;;28.28;101228.70;;;;116854;1191;24716;-61
2022/09/09 07:24:12;;;;;;;;;5.00;5.00;;;28.37;101234.01;;;;117022;1192;25668;-62
2022/09/09 07:26:41;;;;;;;;;8.00;6.67;;;28.36;101232.09;;;;117026;1191;25463;-61
2022/09/09 07:29:13;;;;;;;;;8.00;6.50;;;28.38;101236.14;;;;117049;1193;24841;-61
2022/09/09 07:31:48;;;;;;;;;5.50;5.50;;;28.42;101235.07;;;;117093;1191;25545;-60
2022/09/09 07:34:16;;;;;;;;;6.33;6.33;;;28.43;101231.86;;;;117063;1193;24796;-61
2022/09/09 07:36:46;;;;;;;;;12.25;7.75;;;28.39;101229.73;;;;117017;1193;25643;-61
2022/09/09 07:39:17;;;;;;;;;13.00;7.75;;;28.38;101225.58;;;;116993;1193;25472;-60
2022/09/09 07:41:47;;;;;;;;;10.50;8.50;;;28.44;101226.67;;;;116992;1193;24862;-58
2022/09/09 07:44:23;;;;;;;;;11.33;6.67;;;28.38;101228.23;;;;117059;1191;24971;-59
2022/09/09 07:46:51;;;;;;;;;8.00;7.00;;;28.44;101228.36;;;;117029;1193;25409;-58
2022/09/09 07:49:20;;;;;;;;;9.75;8.00;;;28.43;101232.02;;;;118537;1191;25266;-62
2022/09/09 07:51:58;;;;;;;;;10.00;5.25;;;28.72;101230.91;;;;117032;1193;25485;-60
2022/09/09 07:54:27;;;;;;;;;7.75;4.50;;;28.87;101228.61;;;;117050;1192;25080;-61
2022/09/09 07:56:55;;;;;;;;;9.25;7.00;;;28.86;101224.11;;;;117167;1191;25799;-59
2022/09/09 07:59:24;;;;;;;;;13.75;7.75;;;28.87;101221.30;;;;117036;1193;24767;-61
2022/09/09 08:01:55;;;;;;;;;10.00;9.00;;;28.79;101220.72;;;;117004;1193;25114;-59
2022/09/09 08:04:25;;;;;;;;;7.67;7.67;;;28.77;101218.14;;;;116997;1193;24944;-58
2022/09/09 08:06:59;;;;;;;;;8.00;5.67;;;28.81;101216.55;;;;116934;1193;25604;-58
2022/09/09 08:09:32;;;;;;;;;10.33;6.67;;;28.84;101210.05;;;;117087;1192;25373;-67
2022/09/09 08:12:01;;;;;;;;;10.33;9.00;;;28.85;101209.66;;;;117136;1191;25502;-61
2022/09/09 08:14:29;;;;;;;;;10.33;6.33;;;28.98;101208.55;;;;117083;1193;25523;-64
2022/09/09 08:16:58;;;;;;;;;10.67;7.67;;;29.36;101204.83;;;;117058;1192;25165;-61
2022/09/09 08:19:29;;;;;;;;;8.50;7.00;;;29.84;101204.07;;;;116986;1193;25327;-63
2022/09/09 08:21:58;;;;;;;;;10.33;7.00;;;30.04;101196.66;;;;117043;1193;25303;-61
2022/09/09 08:24:27;;;;;;;;;6.00;2.50;;;30.20;101190.59;;;;117013;1193;25296;-63
2022/09/09 08:26:56;;;;;;;;;11.25;9.00;;;30.29;101187.17;;;;117067;1193;25297;-68
2022/09/09 08:29:25;;;;;;;;;8.25;5.00;;;30.31;101189.79;;;;117118;1192;25465;-66
2022/09/09 08:31:57;;;;;;;;;7.33;5.67;;;30.32;101186.25;;;;117055;1193;24706;-69
2022/09/09 08:34:26;;;;;;;;;8.00;5.67;;;30.39;101187.39;;;;117156;1192;25519;-71
2022/09/09 08:36:55;;;;;;;;;5.75;5.50;;;30.47;101190.05;;;;117151;1190;25488;-71
2022/09/09 08:39:26;;;;;;;;;8.00;6.33;;;30.59;101185.67;;;;117183;1191;25422;-71
2022/09/09 08:42:21;;;;;;;;;5.50;5.25;;;30.68;101182.31;;;;117075;1193;25741;-65
2022/09/09 08:45:14;;;;;;;;;8.33;6.00;;;30.80;101180.55;;;;117119;1193;25592;-62
2022/09/09 08:48:22;;;;;;;;;10.75;6.50;;;30.50;101178.47;;;;117070;1192;25469;-62
2022/09/09 08:50:51;;;;;;;;;5.00;5.00;;;30.19;101179.18;;;;116940;1192;24787;-61
2022/09/09 08:53:24;;;;;;;;;4.50;4.25;;;30.05;101170.33;;;;117050;1193;25165;-59
2022/09/09 08:56:01;;;;;;;;;5.67;5.33;;;29.94;101165.98;;;;117026;1192;25545;-63
2022/09/09 08:58:32;;;;;;;;;10.50;8.50;;;29.84;101166.04;;;;117057;1194;25071;-60
2022/09/09 09:01:16;;;;;;;;;8.25;6.25;;;29.71;101172.72;;;;117100;1194;25024;-60
2022/09/09 09:04:23;;;;;;;;;6.67;6.00;;;29.59;101171.34;;;;117053;1193;25277;-61
2022/09/09 09:07:20;;;;;;;;;11.00;7.00;;;29.66;101168.13;;;;116959;1193;25294;-61
2022/09/09 09:10:31;;;;;;;;;10.67;8.00;;;29.55;101167.89;;;;117088;1191;25015;-60
2022/09/09 09:13:21;;;;;;;;;10.75;8.25;;;29.67;101171.55;;;;117089;1193;25637;-63
2022/09/09 09:15:58;;;;;;;;;8.00;5.50;;;29.61;101167.42;;;;117097;1192;24921;-63
2022/09/09 09:18:26;;;;;;;;;7.67;6.33;;;29.59;101154.73;;;;117001;1193;24956;-63
2022/09/09 09:20:58;;;;;;;;;8.00;6.00;;;29.59;101152.56;;;;116973;1193;24874;-64
2022/09/09 09:23:35;;;;;;;;;8.33;8.33;;;29.47;101155.89;;;;117076;1193;25283;-62
2022/09/09 09:26:07;;;;;;;;;7.25;5.25;;;29.51;101155.22;;;;117070;1192;25148;-66
2022/09/09 09:28:36;;;;;;;;;5.00;4.25;;;29.53;101151.30;;;;116923;1193;25587;-62
2022/09/09 09:31:05;;;;;;;;;7.67;6.67;;;29.45;101148.18;;;;117083;1192;25621;-60
2022/09/09 09:33:40;;;;;;;;;5.25;5.25;;;29.39;101146.83;;;;117070;1193;25562;-64
2022/09/09 09:36:09;;;;;;;;;6.67;6.00;;;29.37;101143.91;;;;117088;1193;25713;-63
2022/09/09 09:38:37;;;;;;;;;5.25;5.25;;;29.34;101151.39;;;;117041;1193;25229;-64
2022/09/09 09:41:32;;;;;;;;;6.00;6.00;;;29.36;101148.79;;;;116999;1193;26490;-65
2022/09/09 09:44:01;;;;;;;;;8.67;8.67;;;30.17;101142.03;;;;116980;1194;25237;-67
2022/09/09 09:46:29;;;;;;;;;7.33;6.67;;;30.70;101142.59;;;;117051;1194;24897;-67
2022/09/09 09:48:58;;;;;;;;;7.67;7.00;;;30.97;101141.67;;;;117058;1193;25508;-66
2022/09/09 09:51:29;;;;;;;;;11.75;7.50;;;31.08;101142.42;;;;117040;1192;25301;-65
2022/09/09 09:54:30;;;;;;;;;7.33;4.67;;;31.17;101129.58;;;;116944;1193;25487;-66
2022/09/09 09:57:13;;;;;;;;;7.00;6.33;;;31.29;101129.31;;;;116972;1193;25376;-64
2022/09/09 09:59:41;;;;;;;;;4.00;4.00;;;31.25;101125.30;;;;117114;1192;25518;-60
2022/09/09 10:02:25;;;;;;;;;7.33;7.33;;;30.74;101126.75;;;;116987;1193;25267;-58
2022/09/09 10:05:05;;;;;;;;;9.50;8.00;;;30.31;101118.58;;;;117050;1193;25747;-65
2022/09/09 10:07:36;;;;;;;;;5.25;5.25;;;30.01;101114.80;;;;117105;1192;25582;-58
2022/09/09 10:10:06;;;;;;;;;6.50;6.50;;;29.85;101118.00;;;;117108;1193;24809;-60
2022/09/09 10:12:59;;;;;;;;;8.00;7.00;;;29.75;101118.60;;;;116950;1193;24844;-70
2022/09/09 10:15:38;;;;;;;;;7.00;4.00;;;29.59;101121.51;;;;117042;1193;25037;-57
2022/09/09 10:18:35;;;;;;;;;6.50;6.50;;;29.57;101118.06;;;;117078;1191;25577;-56
2022/09/09 10:21:13;;;;;;;;;10.00;7.00;;;29.45;101113.45;;;;117058;1193;24963;-57
2022/09/09 10:23:57;;;;;;;;;7.00;7.00;;;29.36;101117.11;;;;117079;1192;25323;-57
2022/09/09 10:26:47;;;;;;;;;6.00;5.00;;;29.30;101113.54;;;;117097;1193;24803;-61
2022/09/09 10:29:53;;;;;;;;;7.25;7.25;;;29.29;101108.52;;;;117105;1192;25153;-64
2022/09/09 10:32:31;;;;;;;;;10.00;8.50;;;29.28;101108.09;;;;117027;1193;24720;-64
2022/09/09 10:35:09;;;;;;;;;7.25;7.25;;;29.18;101107.69;;;;116983;1193;25453;-60
2022/09/09 10:37:52;;;;;;;;;7.67;6.67;;;29.13;101110.94;;;;117122;1192;24788;-63
2022/09/09 10:40:39;;;;;;;;;7.25;7.25;;;29.17;101113.85;;;;117075;1192;25643;-64
2022/09/09 10:43:23;;;;;;;;;6.67;6.00;;;29.17;101111.86;;;;117058;1193;24881;-63
2022/09/09 10:46:03;;;;;;;;;9.33;6.67;;;29.16;101106.45;;;;117080;1193;25427;-64
2022/09/09 10:48:53;;;;;;;;;6.00;6.00;;;29.21;101097.27;;;;116928;1193;25175;-61
2022/09/09 10:51:40;;;;;;;;;9.50;8.00;;;29.16;101092.63;;;;117040;1193;24776;-63
2022/09/09 10:54:25;;;;;;;;;3.33;3.33;;;29.14;101100.41;;;;117044;1192;25700;-62
2022/09/09 10:57:25;;;;;;;;;6.67;6.33;;;29.14;101108.05;;;;117105;1191;24921;-63
2022/09/09 10:59:59;;;;;;;;;11.00;8.00;;;29.18;101101.16;;;;117009;1193;25108;-62
2022/09/09 11:02:30;;;;;;;;;11.67;8.33;;;29.17;101102.05;;;;117036;1193;25055;-61
2022/09/09 11:05:30;;;;;;;;;11.67;8.33;;;29.08;101103.89;;;;117037;1191;24764;-63
2022/09/09 11:08:11;;;;;;;;;5.25;5.25;;;29.16;101102.45;;;;116983;1192;24712;-59
2022/09/09 11:10:55;;;;;;;;;11.25;6.25;;;29.21;101103.77;;;;117100;1193;24806;-60
2022/09/09 11:13:54;;;;;;;;;8.50;7.25;;;29.22;101096.48;;;;117076;1191;25405;-63
2022/09/09 11:16:23;;;;;;;;;5.50;5.00;;;29.25;101093.84;;;;116902;1193;24868;-60
2022/09/09 11:19:11;;;;;;;;;12.00;6.75;;;29.24;101097.61;;;;117050;1193;25072;-61
2022/09/09 11:21:47;;;;;;;;;9.00;8.25;;;29.26;101094.73;;;;117077;1193;25299;-60
2022/09/09 11:24:22;;;;;;;;;7.50;7.50;;;29.23;101092.88;;;;117028;1193;25429;-59
2022/09/09 11:27:02;;;;;;;;;9.75;7.00;;;29.20;101087.49;;;;117017;1193;25688;-59
2022/09/09 11:30:06;;;;;;;;;14.00;9.00;;;29.19;101086.09;;;;117030;1193;25370;-58
2022/09/09 11:32:45;;;;;;;;;4.75;4.75;;;29.18;101085.30;;;;117106;1192;25578;-60
2022/09/09 11:35:19;;;;;;;;;8.75;7.25;;;29.22;101087.71;;;;117048;1193;25708;-61
2022/09/09 11:38:30;;;;;;;;;7.25;6.00;;;29.13;101089.98;;;;117138;1192;25159;-60
2022/09/09 11:41:01;;;;;;;;;4.33;4.33;;;29.19;101089.10;;;;117030;1193;24782;-59
2022/09/09 11:43:30;;;;;;;;;6.25;6.25;;;29.17;101085.23;;;;117087;1192;25396;-59
2022/09/09 11:46:02;;;;;;;;;7.75;7.25;;;29.15;101086.41;;;;117142;1193;25760;-58
2022/09/09 11:48:36;;;;;;;;;8.50;8.00;;;29.14;101079.77;;;;117053;1193;25302;-59
2022/09/09 11:51:10;;;;;;;;;7.00;7.00;;;29.11;101076.15;;;;117015;1192;25296;-60
2022/09/09 11:53:58;;;;;;;;;8.00;6.50;;;29.10;101080.27;;;;117057;1193;25837;-61
2022/09/09 11:56:35;;;;;;;;;7.75;7.00;;;29.10;101075.58;;;;117112;1193;25171;-60
2022/09/09 11:59:06;;;;;;;;;4.00;4.00;;;29.08;101077.98;;;;117078;1193;25479;-59
2022/09/09 12:01:42;;;;;;;;;6.75;6.75;;;29.09;101078.59;;;;117036;1193;25378;-59
2022/09/09 12:04:21;;;;;;;;;6.67;5.67;;;29.08;101082.30;;;;117106;1192;25261;-57
2022/09/09 12:06:59;;;;;;;;;8.00;6.50;;;29.05;101088.16;;;;116998;1193;25591;-61
2022/09/09 12:09:27;;;;;;;;;7.00;6.67;;;29.05;101082.48;;;;116998;1193;25406;-59
2022/09/09 12:12:12;;;;;;;;;5.50;4.25;;;29.00;101077.71;;;;117060;1193;24800;-65
2022/09/09 12:14:41;;;;;;;;;8.25;6.25;;;28.94;101074.42;;;;116970;1193;25910;-66
2022/09/09 12:17:20;;;;;;;;;9.00;8.75;;;28.92;101074.70;;;;117035;1193;25700;-62
2022/09/09 12:20:11;;;;;;;;;8.00;8.00;;;28.91;101076.23;;;;117055;1193;25206;-64
2022/09/09 12:22:45;;;;;;;;;6.75;5.00;;;28.96;101068.55;;;;116896;1192;24910;-63
2022/09/09 12:25:35;;;;;;;;;7.50;6.75;;;28.98;101067.77;;;;116945;1192;25665;-63
2022/09/09 12:28:11;;;;;;;;;8.67;8.00;;;28.97;101067.64;;;;117085;1192;24703;-60
2022/09/09 12:31:04;;;;;;;;;7.75;7.75;;;28.95;101069.72;;;;116990;1193;25195;-65
2022/09/09 12:33:43;;;;;;;;;7.00;6.00;;;28.92;101066.13;;;;117024;1192;24925;-60
2022/09/09 12:36:17;;;;;;;;;7.50;7.25;;;28.94;101061.30;;;;117028;1194;25368;-61
2022/09/09 12:38:46;;;;;;;;;7.00;5.33;;;28.95;101062.73;;;;117029;1193;24982;-61